sensor_id;sensor_type;location;lat;lon;timestamp;temperature;humidity
65826;DHT22;52586;-43.152;172.732;2022-12-18T00:00:27;22.80;52.10
65826;DHT22;52586;-43.152;172.732;2022-12-18T00:02:57;22.80;52.20
65826;DHT22;52586;-43.152;172.732;2022-12-18T00:05:28;22.80;52.20
65826;DHT22;52586;-43.152;172.732;2022-12-18T00:08:01;22.80;52.20
65826;DHT22;52586;-43.152;172.732;2022-12-18T00:10:31;22.80;52.10
65826;DHT22;52586;-43.152;172.732;2022-12-18T00:13:02;22.80;52.20
65826;DHT22;52586;-43.152;172.732;2022-12-18T00:15:35;22.90;52.20
65826;DHT22;52586;-43.152;172.732;2022-12-18T00:18:06;22.80;52.10
65826;DHT22;52586;-43.152;172.732;2022-12-18T00:20:38;22.80;52.20
65826;DHT22;52586;-43.152;172.732;2022-12-18T00:23:11;22.90;52.20
65826;DHT22;52586;-43.152;172.732;2022-12-18T00:25:42;22.90;52.20
65826;DHT22;52586;-43.152;172.732;2022-12-18T00:28:12;22.80;52.10
65826;DHT22;52586;-43.152;172.732;2022-12-18T00:30:43;22.90;52.20
65826;DHT22;52586;-43.152;172.732;2022-12-18T00:33:14;22.90;52.30
65826;DHT22;52586;-43.152;172.732;2022-12-18T00:35:44;22.90;52.40
65826;DHT22;52586;-43.152;172.732;2022-12-18T00:38:17;22.90;52.40
65826;DHT22;52586;-43.152;172.732;2022-12-18T00:40:48;22.90;52.50
65826;DHT22;52586;-43.152;172.732;2022-12-18T00:43:18;22.90;52.50
65826;DHT22;52586;-43.152;172.732;2022-12-18T00:45:47;22.90;52.60
65826;DHT22;52586;-43.152;172.732;2022-12-18T00:48:18;22.90;52.50
65826;DHT22;52586;-43.152;172.732;2022-12-18T00:50:49;22.90;52.40
65826;DHT22;52586;-43.152;172.732;2022-12-18T00:53:22;22.90;52.40
65826;DHT22;52586;-43.152;172.732;2022-12-18T00:55:53;22.90;52.40
65826;DHT22;52586;-43.152;172.732;2022-12-18T00:58:23;22.90;52.40
65826;DHT22;52586;-43.152;172.732;2022-12-18T01:00:54;22.90;52.40
65826;DHT22;52586;-43.152;172.732;2022-12-18T01:03:25;22.90;52.30
65826;DHT22;52586;-43.152;172.732;2022-12-18T01:05:55;22.90;52.40
65826;DHT22;52586;-43.152;172.732;2022-12-18T01:08:28;22.90;53.10
65826;DHT22;52586;-43.152;172.732;2022-12-18T01:10:59;22.90;52.50
65826;DHT22;52586;-43.152;172.732;2022-12-18T01:13:29;22.90;52.60
65826;DHT22;52586;-43.152;172.732;2022-12-18T01:16:00;22.90;52.80
65826;DHT22;52586;-43.152;172.732;2022-12-18T01:18:31;23.00;52.90
65826;DHT22;52586;-43.152;172.732;2022-12-18T01:21:05;23.00;53.00
65826;DHT22;52586;-43.152;172.732;2022-12-18T01:23:38;23.00;53.00
65826;DHT22;52586;-43.152;172.732;2022-12-18T01:26:10;23.00;53.00
65826;DHT22;52586;-43.152;172.732;2022-12-18T01:28:41;23.00;53.00
65826;DHT22;52586;-43.152;172.732;2022-12-18T01:31:14;23.00;53.00
65826;DHT22;52586;-43.152;172.732;2022-12-18T01:33:46;23.00;52.80
65826;DHT22;52586;-43.152;172.732;2022-12-18T01:36:19;23.00;52.80
65826;DHT22;52586;-43.152;172.732;2022-12-18T01:38:52;23.00;52.70
65826;DHT22;52586;-43.152;172.732;2022-12-18T01:41:24;23.00;52.70
65826;DHT22;52586;-43.152;172.732;2022-12-18T01:47:23;23.00;52.70
65826;DHT22;52586;-43.152;172.732;2022-12-18T01:49:56;23.00;52.80
65826;DHT22;52586;-43.152;172.732;2022-12-18T01:52:29;23.00;53.30
65826;DHT22;52586;-43.152;172.732;2022-12-18T01:55:04;23.00;52.80
65826;DHT22;52586;-43.152;172.732;2022-12-18T01:57:35;23.00;52.90
65826;DHT22;52586;-43.152;172.732;2022-12-18T02:00:10;23.00;52.90
65826;DHT22;52586;-43.152;172.732;2022-12-18T02:02:41;23.00;52.90
65826;DHT22;52586;-43.152;172.732;2022-12-18T02:05:13;23.00;52.80
65826;DHT22;52586;-43.152;172.732;2022-12-18T02:07:52;23.00;52.80
65826;DHT22;52586;-43.152;172.732;2022-12-18T02:10:30;23.00;52.70
65826;DHT22;52586;-43.152;172.732;2022-12-18T02:13:06;23.00;52.60
65826;DHT22;52586;-43.152;172.732;2022-12-18T02:15:43;23.00;52.60
65826;DHT22;52586;-43.152;172.732;2022-12-18T02:18:18;23.00;52.60
65826;DHT22;52586;-43.152;172.732;2022-12-18T02:20:56;23.00;52.60
65826;DHT22;52586;-43.152;172.732;2022-12-18T02:23:44;23.10;52.60
65826;DHT22;52586;-43.152;172.732;2022-12-18T02:26:21;23.10;52.70
65826;DHT22;52586;-43.152;172.732;2022-12-18T02:28:56;23.10;52.70
65826;DHT22;52586;-43.152;172.732;2022-12-18T02:31:31;23.00;52.70
65826;DHT22;52586;-43.152;172.732;2022-12-18T02:34:06;23.00;52.80
65826;DHT22;52586;-43.152;172.732;2022-12-18T02:36:39;23.00;52.80
65826;DHT22;52586;-43.152;172.732;2022-12-18T02:39:12;23.00;52.90
65826;DHT22;52586;-43.152;172.732;2022-12-18T02:41:46;23.00;52.80
65826;DHT22;52586;-43.152;172.732;2022-12-18T02:44:17;23.00;52.80
65826;DHT22;52586;-43.152;172.732;2022-12-18T02:46:50;23.00;52.80
65826;DHT22;52586;-43.152;172.732;2022-12-18T02:49:30;23.00;53.70
65826;DHT22;52586;-43.152;172.732;2022-12-18T02:52:08;23.00;55.10
65826;DHT22;52586;-43.152;172.732;2022-12-18T02:54:54;22.90;55.80
65826;DHT22;52586;-43.152;172.732;2022-12-18T02:57:33;22.80;57.00
65826;DHT22;52586;-43.152;172.732;2022-12-18T03:00:08;22.70;56.60
65826;DHT22;52586;-43.152;172.732;2022-12-18T03:02:44;22.60;56.90
65826;DHT22;52586;-43.152;172.732;2022-12-18T03:05:18;22.50;57.00
65826;DHT22;52586;-43.152;172.732;2022-12-18T03:07:53;22.50;56.90
65826;DHT22;52586;-43.152;172.732;2022-12-18T03:10:28;22.40;56.70
65826;DHT22;52586;-43.152;172.732;2022-12-18T03:13:04;22.40;56.60
65826;DHT22;52586;-43.152;172.732;2022-12-18T03:15:38;22.40;56.60
65826;DHT22;52586;-43.152;172.732;2022-12-18T03:18:14;22.40;56.50
65826;DHT22;52586;-43.152;172.732;2022-12-18T03:20:47;22.40;56.30
65826;DHT22;52586;-43.152;172.732;2022-12-18T03:23:22;22.50;56.30
65826;DHT22;52586;-43.152;172.732;2022-12-18T03:25:58;22.40;56.10
65826;DHT22;52586;-43.152;172.732;2022-12-18T03:28:35;22.50;55.90
65826;DHT22;52586;-43.152;172.732;2022-12-18T03:31:10;22.50;55.90
65826;DHT22;52586;-43.152;172.732;2022-12-18T03:33:45;22.50;55.80
65826;DHT22;52586;-43.152;172.732;2022-12-18T03:36:17;22.50;55.80
65826;DHT22;52586;-43.152;172.732;2022-12-18T03:38:48;22.50;55.90
65826;DHT22;52586;-43.152;172.732;2022-12-18T03:41:23;22.50;56.00
65826;DHT22;52586;-43.152;172.732;2022-12-18T03:44:02;22.50;56.00
65826;DHT22;52586;-43.152;172.732;2022-12-18T03:46:43;22.50;55.90
65826;DHT22;52586;-43.152;172.732;2022-12-18T03:49:22;22.50;55.70
65826;DHT22;52586;-43.152;172.732;2022-12-18T03:51:57;22.50;55.70
65826;DHT22;52586;-43.152;172.732;2022-12-18T03:54:32;22.50;55.70
65826;DHT22;52586;-43.152;172.732;2022-12-18T03:57:07;22.50;55.60
65826;DHT22;52586;-43.152;172.732;2022-12-18T03:59:40;22.50;55.60
65826;DHT22;52586;-43.152;172.732;2022-12-18T04:02:12;22.50;55.50
65826;DHT22;52586;-43.152;172.732;2022-12-18T04:04:44;22.50;56.10
65826;DHT22;52586;-43.152;172.732;2022-12-18T04:07:19;22.50;55.40
65826;DHT22;52586;-43.152;172.732;2022-12-18T04:09:51;22.50;55.40
65826;DHT22;52586;-43.152;172.732;2022-12-18T04:12:25;22.50;55.40
65826;DHT22;52586;-43.152;172.732;2022-12-18T04:14:58;22.50;55.40
65826;DHT22;52586;-43.152;172.732;2022-12-18T04:17:28;22.50;55.40
65826;DHT22;52586;-43.152;172.732;2022-12-18T04:19:59;22.50;55.40
65826;DHT22;52586;-43.152;172.732;2022-12-18T04:22:30;22.50;55.40
65826;DHT22;52586;-43.152;172.732;2022-12-18T04:25:00;22.50;55.40
65826;DHT22;52586;-43.152;172.732;2022-12-18T04:27:31;22.50;55.30
65826;DHT22;52586;-43.152;172.732;2022-12-18T04:30:04;22.50;55.30
65826;DHT22;52586;-43.152;172.732;2022-12-18T04:32:35;22.50;55.20
65826;DHT22;52586;-43.152;172.732;2022-12-18T04:35:06;22.50;55.20
65826;DHT22;52586;-43.152;172.732;2022-12-18T04:37:38;22.50;55.10
65826;DHT22;52586;-43.152;172.732;2022-12-18T04:40:09;22.50;55.00
65826;DHT22;52586;-43.152;172.732;2022-12-18T04:42:40;22.50;55.10
65826;DHT22;52586;-43.152;172.732;2022-12-18T04:45:13;22.50;55.00
65826;DHT22;52586;-43.152;172.732;2022-12-18T04:47:44;22.50;55.00
65826;DHT22;52586;-43.152;172.732;2022-12-18T04:50:14;22.50;55.00
65826;DHT22;52586;-43.152;172.732;2022-12-18T04:52:45;22.50;55.00
65826;DHT22;52586;-43.152;172.732;2022-12-18T04:55:16;22.50;55.00
65826;DHT22;52586;-43.152;172.732;2022-12-18T04:57:47;22.50;55.00
65826;DHT22;52586;-43.152;172.732;2022-12-18T05:00:20;22.50;55.00
65826;DHT22;52586;-43.152;172.732;2022-12-18T05:02:51;22.50;54.90
65826;DHT22;52586;-43.152;172.732;2022-12-18T05:05:21;22.50;54.80
65826;DHT22;52586;-43.152;172.732;2022-12-18T05:07:52;22.50;54.80
65826;DHT22;52586;-43.152;172.732;2022-12-18T05:10:23;22.50;54.80
65826;DHT22;52586;-43.152;172.732;2022-12-18T05:12:53;22.50;54.70
65826;DHT22;52586;-43.152;172.732;2022-12-18T05:15:33;22.40;54.70
65826;DHT22;52586;-43.152;172.732;2022-12-18T05:18:04;22.40;54.60
65826;DHT22;52586;-43.152;172.732;2022-12-18T05:20:35;22.50;54.60
65826;DHT22;52586;-43.152;172.732;2022-12-18T05:23:05;22.50;54.60
65826;DHT22;52586;-43.152;172.732;2022-12-18T05:25:36;22.40;54.60
65826;DHT22;52586;-43.152;172.732;2022-12-18T05:28:07;22.40;54.60
65826;DHT22;52586;-43.152;172.732;2022-12-18T05:30:39;22.40;54.60
65826;DHT22;52586;-43.152;172.732;2022-12-18T05:33:10;22.40;54.60
65826;DHT22;52586;-43.152;172.732;2022-12-18T05:35:41;22.40;54.60
65826;DHT22;52586;-43.152;172.732;2022-12-18T05:38:11;22.40;54.60
65826;DHT22;52586;-43.152;172.732;2022-12-18T05:40:43;22.40;54.60
65826;DHT22;52586;-43.152;172.732;2022-12-18T05:43:14;22.40;54.60
65826;DHT22;52586;-43.152;172.732;2022-12-18T05:45:47;22.40;54.50
65826;DHT22;52586;-43.152;172.732;2022-12-18T05:48:18;22.40;54.40
65826;DHT22;52586;-43.152;172.732;2022-12-18T05:50:49;22.40;54.50
65826;DHT22;52586;-43.152;172.732;2022-12-18T05:53:20;22.40;54.40
65826;DHT22;52586;-43.152;172.732;2022-12-18T05:55:51;22.40;54.40
65826;DHT22;52586;-43.152;172.732;2022-12-18T05:58:22;22.40;54.40
65826;DHT22;52586;-43.152;172.732;2022-12-18T06:00:54;22.40;54.40
65826;DHT22;52586;-43.152;172.732;2022-12-18T06:03:25;22.40;54.40
65826;DHT22;52586;-43.152;172.732;2022-12-18T06:05:56;22.30;54.30
65826;DHT22;52586;-43.152;172.732;2022-12-18T06:08:27;22.30;54.30
65826;DHT22;52586;-43.152;172.732;2022-12-18T06:10:57;22.30;54.40
65826;DHT22;52586;-43.152;172.732;2022-12-18T06:13:28;22.30;54.40
65826;DHT22;52586;-43.152;172.732;2022-12-18T06:16:03;22.30;54.40
65826;DHT22;52586;-43.152;172.732;2022-12-18T06:18:34;22.30;54.40
65826;DHT22;52586;-43.152;172.732;2022-12-18T06:21:05;22.30;54.40
65826;DHT22;52586;-43.152;172.732;2022-12-18T06:23:35;22.30;54.30
65826;DHT22;52586;-43.152;172.732;2022-12-18T06:26:08;22.30;54.30
65826;DHT22;52586;-43.152;172.732;2022-12-18T06:28:39;22.30;54.30
65826;DHT22;52586;-43.152;172.732;2022-12-18T06:31:12;22.30;54.30
65826;DHT22;52586;-43.152;172.732;2022-12-18T06:33:43;22.20;54.20
65826;DHT22;52586;-43.152;172.732;2022-12-18T06:36:14;22.30;54.30
65826;DHT22;52586;-43.152;172.732;2022-12-18T06:38:45;22.30;54.30
65826;DHT22;52586;-43.152;172.732;2022-12-18T06:41:16;22.20;54.20
65826;DHT22;52586;-43.152;172.732;2022-12-18T06:43:48;22.20;54.30
65826;DHT22;52586;-43.152;172.732;2022-12-18T06:46:20;22.20;54.30
65826;DHT22;52586;-43.152;172.732;2022-12-18T06:48:51;22.20;54.30
65826;DHT22;52586;-43.152;172.732;2022-12-18T06:51:22;22.20;54.30
65826;DHT22;52586;-43.152;172.732;2022-12-18T06:53:53;22.20;54.30
65826;DHT22;52586;-43.152;172.732;2022-12-18T06:56:24;22.20;54.30
65826;DHT22;52586;-43.152;172.732;2022-12-18T06:58:55;22.20;54.30
65826;DHT22;52586;-43.152;172.732;2022-12-18T07:01:27;22.20;54.30
65826;DHT22;52586;-43.152;172.732;2022-12-18T07:03:58;22.20;54.30
65826;DHT22;52586;-43.152;172.732;2022-12-18T07:06:29;22.10;54.20
65826;DHT22;52586;-43.152;172.732;2022-12-18T07:08:59;22.10;54.20
65826;DHT22;52586;-43.152;172.732;2022-12-18T07:11:32;22.10;54.20
65826;DHT22;52586;-43.152;172.732;2022-12-18T07:14:03;22.10;54.20
65826;DHT22;52586;-43.152;172.732;2022-12-18T07:16:35;22.10;54.20
65826;DHT22;52586;-43.152;172.732;2022-12-18T07:19:06;22.10;54.30
65826;DHT22;52586;-43.152;172.732;2022-12-18T07:21:37;22.10;54.30
65826;DHT22;52586;-43.152;172.732;2022-12-18T07:24:08;22.10;54.20
65826;DHT22;52586;-43.152;172.732;2022-12-18T07:26:39;22.10;54.20
65826;DHT22;52586;-43.152;172.732;2022-12-18T07:29:09;22.10;54.10
65826;DHT22;52586;-43.152;172.732;2022-12-18T07:31:42;22.10;54.10
65826;DHT22;52586;-43.152;172.732;2022-12-18T07:34:13;22.10;54.10
65826;DHT22;52586;-43.152;172.732;2022-12-18T07:36:44;22.00;54.10
65826;DHT22;52586;-43.152;172.732;2022-12-18T07:39:15;22.10;54.10
65826;DHT22;52586;-43.152;172.732;2022-12-18T07:41:46;22.10;54.10
65826;DHT22;52586;-43.152;172.732;2022-12-18T07:44:37;22.00;54.00
65826;DHT22;52586;-43.152;172.732;2022-12-18T07:47:09;22.10;54.00
65826;DHT22;52586;-43.152;172.732;2022-12-18T07:49:40;22.00;54.00
65826;DHT22;52586;-43.152;172.732;2022-12-18T07:52:11;22.00;54.00
65826;DHT22;52586;-43.152;172.732;2022-12-18T07:54:43;22.00;54.00
65826;DHT22;52586;-43.152;172.732;2022-12-18T07:57:16;22.00;54.20
65826;DHT22;52586;-43.152;172.732;2022-12-18T07:59:47;22.00;54.20
65826;DHT22;52586;-43.152;172.732;2022-12-18T08:02:23;22.00;54.30
65826;DHT22;52586;-43.152;172.732;2022-12-18T08:04:57;22.00;54.20
65826;DHT22;52586;-43.152;172.732;2022-12-18T08:07:30;22.00;54.20
65826;DHT22;52586;-43.152;172.732;2022-12-18T08:10:01;22.00;54.20
65826;DHT22;52586;-43.152;172.732;2022-12-18T08:12:33;22.00;54.20
65826;DHT22;52586;-43.152;172.732;2022-12-18T08:15:05;22.00;54.20
65826;DHT22;52586;-43.152;172.732;2022-12-18T08:17:37;22.00;54.20
65826;DHT22;52586;-43.152;172.732;2022-12-18T08:20:10;22.00;54.20
65826;DHT22;52586;-43.152;172.732;2022-12-18T08:22:41;22.00;54.20
65826;DHT22;52586;-43.152;172.732;2022-12-18T08:25:12;22.00;54.30
65826;DHT22;52586;-43.152;172.732;2022-12-18T08:27:44;22.00;54.40
65826;DHT22;52586;-43.152;172.732;2022-12-18T08:30:15;22.00;54.60
65826;DHT22;52586;-43.152;172.732;2022-12-18T08:32:52;22.00;54.50
65826;DHT22;52586;-43.152;172.732;2022-12-18T08:35:23;22.00;55.20
65826;DHT22;52586;-43.152;172.732;2022-12-18T08:37:56;22.00;54.90
65826;DHT22;52586;-43.152;172.732;2022-12-18T08:40:30;22.00;54.80
65826;DHT22;52586;-43.152;172.732;2022-12-18T08:43:03;22.00;54.90
65826;DHT22;52586;-43.152;172.732;2022-12-18T08:45:46;22.00;55.20
65826;DHT22;52586;-43.152;172.732;2022-12-18T08:48:19;22.00;55.20
65826;DHT22;52586;-43.152;172.732;2022-12-18T08:50:55;22.00;55.10
65826;DHT22;52586;-43.152;172.732;2022-12-18T08:53:26;22.00;55.20
65826;DHT22;52586;-43.152;172.732;2022-12-18T08:55:58;22.00;55.10
65826;DHT22;52586;-43.152;172.732;2022-12-18T08:58:29;22.00;55.20
65826;DHT22;52586;-43.152;172.732;2022-12-18T09:01:01;22.00;55.20
65826;DHT22;52586;-43.152;172.732;2022-12-18T09:03:34;22.00;55.20
65826;DHT22;52586;-43.152;172.732;2022-12-18T09:06:05;22.00;55.20
65826;DHT22;52586;-43.152;172.732;2022-12-18T09:08:37;22.00;55.20
65826;DHT22;52586;-43.152;172.732;2022-12-18T09:11:13;22.00;55.20
65826;DHT22;52586;-43.152;172.732;2022-12-18T09:13:49;22.00;55.20
65826;DHT22;52586;-43.152;172.732;2022-12-18T09:16:20;22.00;55.20
65826;DHT22;52586;-43.152;172.732;2022-12-18T09:18:55;21.90;55.80
65826;DHT22;52586;-43.152;172.732;2022-12-18T09:21:30;21.90;55.10
65826;DHT22;52586;-43.152;172.732;2022-12-18T09:24:01;21.90;55.20
65826;DHT22;52586;-43.152;172.732;2022-12-18T09:26:32;21.90;55.30
65826;DHT22;52586;-43.152;172.732;2022-12-18T09:29:03;21.90;55.40
65826;DHT22;52586;-43.152;172.732;2022-12-18T09:31:34;22.00;55.60
65826;DHT22;52586;-43.152;172.732;2022-12-18T09:34:07;21.90;55.60
65826;DHT22;52586;-43.152;172.732;2022-12-18T09:36:38;21.90;55.60
65826;DHT22;52586;-43.152;172.732;2022-12-18T09:39:09;21.90;55.50
65826;DHT22;52586;-43.152;172.732;2022-12-18T09:41:45;21.90;55.50
65826;DHT22;52586;-43.152;172.732;2022-12-18T09:44:25;21.90;55.50
65826;DHT22;52586;-43.152;172.732;2022-12-18T09:47:05;21.90;55.40
65826;DHT22;52586;-43.152;172.732;2022-12-18T09:49:42;21.90;55.40
65826;DHT22;52586;-43.152;172.732;2022-12-18T09:52:17;21.90;55.30
65826;DHT22;52586;-43.152;172.732;2022-12-18T09:54:55;21.90;55.30
65826;DHT22;52586;-43.152;172.732;2022-12-18T09:57:29;21.90;55.20
65826;DHT22;52586;-43.152;172.732;2022-12-18T10:00:08;21.90;55.20
65826;DHT22;52586;-43.152;172.732;2022-12-18T10:02:40;21.80;55.10
65826;DHT22;52586;-43.152;172.732;2022-12-18T10:05:15;21.80;55.10
65826;DHT22;52586;-43.152;172.732;2022-12-18T10:07:55;21.80;55.00
65826;DHT22;52586;-43.152;172.732;2022-12-18T10:10:35;21.80;55.10
65826;DHT22;52586;-43.152;172.732;2022-12-18T10:13:17;21.80;55.00
65826;DHT22;52586;-43.152;172.732;2022-12-18T10:16:02;21.80;55.00
65826;DHT22;52586;-43.152;172.732;2022-12-18T10:18:53;21.80;55.00
65826;DHT22;52586;-43.152;172.732;2022-12-18T10:21:32;21.80;55.00
65826;DHT22;52586;-43.152;172.732;2022-12-18T10:24:15;21.80;55.00
65826;DHT22;52586;-43.152;172.732;2022-12-18T10:26:48;21.70;54.80
65826;DHT22;52586;-43.152;172.732;2022-12-18T10:29:19;21.80;54.90
65826;DHT22;52586;-43.152;172.732;2022-12-18T10:31:49;21.70;54.80
65826;DHT22;52586;-43.152;172.732;2022-12-18T10:34:20;21.70;54.90
65826;DHT22;52586;-43.152;172.732;2022-12-18T10:36:53;21.70;54.80
65826;DHT22;52586;-43.152;172.732;2022-12-18T10:39:24;21.70;54.80
65826;DHT22;52586;-43.152;172.732;2022-12-18T10:42:10;21.70;54.80
65826;DHT22;52586;-43.152;172.732;2022-12-18T10:44:42;21.70;54.80
65826;DHT22;52586;-43.152;172.732;2022-12-18T10:47:15;21.70;54.80
65826;DHT22;52586;-43.152;172.732;2022-12-18T10:49:51;21.70;54.80
65826;DHT22;52586;-43.152;172.732;2022-12-18T10:52:26;21.70;54.80
65826;DHT22;52586;-43.152;172.732;2022-12-18T10:54:59;21.70;54.80
65826;DHT22;52586;-43.152;172.732;2022-12-18T10:57:33;21.60;54.70
65826;DHT22;52586;-43.152;172.732;2022-12-18T11:00:23;21.60;54.60
65826;DHT22;52586;-43.152;172.732;2022-12-18T11:02:55;21.60;54.60
65826;DHT22;52586;-43.152;172.732;2022-12-18T11:05:29;21.60;54.60
65826;DHT22;52586;-43.152;172.732;2022-12-18T11:08:02;21.60;54.60
65826;DHT22;52586;-43.152;172.732;2022-12-18T11:10:35;21.60;54.60
65826;DHT22;52586;-43.152;172.732;2022-12-18T11:13:17;21.60;54.60
65826;DHT22;52586;-43.152;172.732;2022-12-18T11:15:48;21.60;54.60
65826;DHT22;52586;-43.152;172.732;2022-12-18T11:18:23;21.60;54.60
65826;DHT22;52586;-43.152;172.732;2022-12-18T11:20:56;21.50;54.60
65826;DHT22;52586;-43.152;172.732;2022-12-18T11:23:29;21.60;54.60
65826;DHT22;52586;-43.152;172.732;2022-12-18T11:26:01;21.50;54.50
65826;DHT22;52586;-43.152;172.732;2022-12-18T11:28:39;21.50;54.50
65826;DHT22;52586;-43.152;172.732;2022-12-18T11:31:23;21.50;54.50
65826;DHT22;52586;-43.152;172.732;2022-12-18T11:34:01;21.50;54.50
65826;DHT22;52586;-43.152;172.732;2022-12-18T11:36:34;21.50;54.40
65826;DHT22;52586;-43.152;172.732;2022-12-18T11:39:13;21.50;54.40
65826;DHT22;52586;-43.152;172.732;2022-12-18T11:41:52;21.50;54.40
65826;DHT22;52586;-43.152;172.732;2022-12-18T11:44:46;21.50;54.40
65826;DHT22;52586;-43.152;172.732;2022-12-18T11:47:25;21.40;54.40
65826;DHT22;52586;-43.152;172.732;2022-12-18T11:50:01;21.40;54.40
65826;DHT22;52586;-43.152;172.732;2022-12-18T11:52:36;21.40;54.40
65826;DHT22;52586;-43.152;172.732;2022-12-18T11:55:13;21.50;54.40
65826;DHT22;52586;-43.152;172.732;2022-12-18T11:57:50;21.40;54.40
65826;DHT22;52586;-43.152;172.732;2022-12-18T12:00:25;21.40;54.40
65826;DHT22;52586;-43.152;172.732;2022-12-18T12:03:24;21.40;54.40
65826;DHT22;52586;-43.152;172.732;2022-12-18T12:06:09;21.40;54.40
65826;DHT22;52586;-43.152;172.732;2022-12-18T12:08:52;21.40;54.30
65826;DHT22;52586;-43.152;172.732;2022-12-18T12:11:33;21.40;54.30
65826;DHT22;52586;-43.152;172.732;2022-12-18T12:14:21;21.40;54.40
65826;DHT22;52586;-43.152;172.732;2022-12-18T12:16:58;21.30;54.30
65826;DHT22;52586;-43.152;172.732;2022-12-18T12:19:39;21.30;54.30
65826;DHT22;52586;-43.152;172.732;2022-12-18T12:22:17;21.30;54.30
65826;DHT22;52586;-43.152;172.732;2022-12-18T12:25:02;21.30;54.30
65826;DHT22;52586;-43.152;172.732;2022-12-18T12:27:43;21.30;54.20
65826;DHT22;52586;-43.152;172.732;2022-12-18T12:30:20;21.30;54.30
65826;DHT22;52586;-43.152;172.732;2022-12-18T12:33:01;21.30;54.30
65826;DHT22;52586;-43.152;172.732;2022-12-18T12:35:44;21.40;54.30
65826;DHT22;52586;-43.152;172.732;2022-12-18T12:38:19;21.30;54.20
65826;DHT22;52586;-43.152;172.732;2022-12-18T12:40:55;21.30;54.20
65826;DHT22;52586;-43.152;172.732;2022-12-18T12:43:35;21.30;54.20
65826;DHT22;52586;-43.152;172.732;2022-12-18T12:46:09;21.30;54.20
65826;DHT22;52586;-43.152;172.732;2022-12-18T12:48:44;21.30;54.20
65826;DHT22;52586;-43.152;172.732;2022-12-18T12:51:19;21.30;54.20
65826;DHT22;52586;-43.152;172.732;2022-12-18T12:53:51;21.20;54.20
65826;DHT22;52586;-43.152;172.732;2022-12-18T12:56:24;21.20;54.20
65826;DHT22;52586;-43.152;172.732;2022-12-18T12:59:08;21.20;54.20
65826;DHT22;52586;-43.152;172.732;2022-12-18T13:01:48;21.20;54.20
65826;DHT22;52586;-43.152;172.732;2022-12-18T13:04:27;21.30;54.20
65826;DHT22;52586;-43.152;172.732;2022-12-18T13:07:01;21.30;54.20
65826;DHT22;52586;-43.152;172.732;2022-12-18T13:09:34;21.20;54.20
65826;DHT22;52586;-43.152;172.732;2022-12-18T13:12:25;21.20;54.10
65826;DHT22;52586;-43.152;172.732;2022-12-18T13:15:21;21.20;54.10
65826;DHT22;52586;-43.152;172.732;2022-12-18T13:18:12;21.20;54.00
65826;DHT22;52586;-43.152;172.732;2022-12-18T13:20:45;21.20;54.00
65826;DHT22;52586;-43.152;172.732;2022-12-18T13:23:34;21.20;54.00
65826;DHT22;52586;-43.152;172.732;2022-12-18T13:26:30;21.20;54.10
65826;DHT22;52586;-43.152;172.732;2022-12-18T13:29:04;21.20;54.00
65826;DHT22;52586;-43.152;172.732;2022-12-18T13:32:21;21.20;54.00
65826;DHT22;52586;-43.152;172.732;2022-12-18T13:37:54;21.10;54.00
65826;DHT22;52586;-43.152;172.732;2022-12-18T13:40:55;21.20;54.00
65826;DHT22;52586;-43.152;172.732;2022-12-18T13:43:30;21.20;54.00
65826;DHT22;52586;-43.152;172.732;2022-12-18T13:46:17;21.10;53.90
65826;DHT22;52586;-43.152;172.732;2022-12-18T13:48:59;21.10;53.90
65826;DHT22;52586;-43.152;172.732;2022-12-18T13:51:32;21.10;53.90
65826;DHT22;52586;-43.152;172.732;2022-12-18T13:54:12;21.10;53.90
65826;DHT22;52586;-43.152;172.732;2022-12-18T13:56:48;21.10;53.90
65826;DHT22;52586;-43.152;172.732;2022-12-18T13:59:21;21.10;53.90
65826;DHT22;52586;-43.152;172.732;2022-12-18T14:01:54;21.10;53.90
65826;DHT22;52586;-43.152;172.732;2022-12-18T14:04:28;21.10;53.90
65826;DHT22;52586;-43.152;172.732;2022-12-18T14:07:03;21.00;53.90
65826;DHT22;52586;-43.152;172.732;2022-12-18T14:09:37;21.10;53.90
65826;DHT22;52586;-43.152;172.732;2022-12-18T14:12:16;21.10;54.00
65826;DHT22;52586;-43.152;172.732;2022-12-18T14:15:05;21.00;53.90
65826;DHT22;52586;-43.152;172.732;2022-12-18T14:17:37;21.00;53.80
65826;DHT22;52586;-43.152;172.732;2022-12-18T14:20:16;21.10;53.90
65826;DHT22;52586;-43.152;172.732;2022-12-18T14:22:48;21.00;53.80
65826;DHT22;52586;-43.152;172.732;2022-12-18T14:25:21;21.00;53.80
65826;DHT22;52586;-43.152;172.732;2022-12-18T14:27:57;21.00;53.80
65826;DHT22;52586;-43.152;172.732;2022-12-18T14:30:37;21.00;53.80
65826;DHT22;52586;-43.152;172.732;2022-12-18T14:33:11;21.00;53.80
65826;DHT22;52586;-43.152;172.732;2022-12-18T14:35:52;21.00;53.80
65826;DHT22;52586;-43.152;172.732;2022-12-18T14:38:26;21.00;53.80
65826;DHT22;52586;-43.152;172.732;2022-12-18T14:41:00;21.00;53.80
65826;DHT22;52586;-43.152;172.732;2022-12-18T14:43:32;21.00;53.80
65826;DHT22;52586;-43.152;172.732;2022-12-18T14:46:04;21.00;53.80
65826;DHT22;52586;-43.152;172.732;2022-12-18T14:48:37;21.00;53.80
65826;DHT22;52586;-43.152;172.732;2022-12-18T14:51:17;20.90;53.80
65826;DHT22;52586;-43.152;172.732;2022-12-18T14:53:52;21.00;53.80
65826;DHT22;52586;-43.152;172.732;2022-12-18T14:56:24;20.90;53.80
65826;DHT22;52586;-43.152;172.732;2022-12-18T14:58:56;21.00;53.80
65826;DHT22;52586;-43.152;172.732;2022-12-18T15:01:30;21.00;53.80
65826;DHT22;52586;-43.152;172.732;2022-12-18T15:04:03;20.90;53.70
65826;DHT22;52586;-43.152;172.732;2022-12-18T15:06:37;20.90;53.70
65826;DHT22;52586;-43.152;172.732;2022-12-18T15:09:24;20.90;53.70
65826;DHT22;52586;-43.152;172.732;2022-12-18T15:11:57;20.90;53.70
65826;DHT22;52586;-43.152;172.732;2022-12-18T15:14:38;20.90;53.60
65826;DHT22;52586;-43.152;172.732;2022-12-18T15:17:18;20.90;53.70
65826;DHT22;52586;-43.152;172.732;2022-12-18T15:19:50;20.90;53.70
65826;DHT22;52586;-43.152;172.732;2022-12-18T15:22:26;20.90;53.70
65826;DHT22;52586;-43.152;172.732;2022-12-18T15:24:57;20.90;53.70
65826;DHT22;52586;-43.152;172.732;2022-12-18T15:27:31;20.90;53.70
65826;DHT22;52586;-43.152;172.732;2022-12-18T15:30:17;20.80;53.70
65826;DHT22;52586;-43.152;172.732;2022-12-18T15:32:49;20.80;53.70
65826;DHT22;52586;-43.152;172.732;2022-12-18T15:35:22;20.80;53.60
65826;DHT22;52586;-43.152;172.732;2022-12-18T15:37:55;20.80;53.60